Kezdőlap
METAR-TAF:

METAR-TAF

Repülőterek :

Dzsibuti, Dzsibuti

földrajzi szélesség: 11-33N, földrajzi hosszúság: 043-10E, magasság: 49 m

Jelenlegi meteorológiai megfigyelések

A jelentés 9 órával és 5 perccel ezelõtt készült, 17:00 UTC
Keleti szél 6 kt
Hőmérséklet 29°C
Páratartalom 74%
Légköri nyomás 1016 hPa
Látótávolság 10 km, vagy több
Szórványos felhőzet 2300 lábon

METAR: HDAM 161700Z 09006KT 9999 SCT023 29/24 Q1016

Idő: 05:05 (02:05 UTC)

Előrejelzés

Az előrejelzés 17-én 00 óra UTC és 17-én 24 óra UTC között érvényes
Északi szél kt
Látótávolság 10 km, vagy több
Szórványos felhőzet 2000 lábon
17-én 06 óra UTC és 17-én 12 óra UTC között fokozatosan kialakuló
Keleti szél 10 kt
Szórványos felhőzet 2300 lábon
17-én 15 óra UTC és 17-én 18 óra UTC között fokozatosan kialakuló
Különbözõ irányokból fújó szél 5 kt

TAF: HDAM 1700/1724 00000KT 9999 SCT020 BECMG 1706/1712 08010KT SCT023 BECMG 1715/1718 VRB05KT

Meteorológiai megfigyelések és előrejelzések több, mint 4000 repülőtéren (METAR és TAF jelentéseket).

A térképen piros és sárga pontok jelzik az elérhető meteorológiai állomásokat.

Mozgassa az egeret a pont fölött, hogy megjelenjen az állomás neve.

Azután kattintson az időjárási megfigyelések és előrejelzések megtekintéséhez.

A térkép megváltoztatása: kattintson a fekete keresztel jelölt zöld gombra ráközelítéshez, a vonallal jelölt zöld gombra távolításhoz, vagy a zöld nyilakra a szomszédos térképek eléréséhez.


METAR-TAF: